Time;durP1;ratioP1;P1;durP2;ratioP2;P2;SDS_P1;SDS_P2;PMS_P1;PMS_P2;Temp;Humidity;BMP_temperature;BMP_pressure;BME280_temperature;BME280_humidity;BME280_pressure;Samples;Min_cycle;Max_cycle;Signal;HPM_P1;HPM_P2
2021/06/17 00:00:44;;;;;;;6.25;3.97;;;23.20;83.40;;;;;;5131765;27;20067;-48
2021/06/17 00:03:12;;;;;;;6.70;3.90;;;23.20;83.90;;;;;;5127589;27;20051;-55
2021/06/17 00:05:42;;;;;;;8.45;3.92;;;23.20;83.00;;;;;;5131752;27;20137;-46
2021/06/17 00:08:10;;;;;;;5.28;4.03;;;23.20;82.90;;;;;;5106648;28;20054;-47
2021/06/17 00:10:44;;;;;;;4.45;3.53;;;23.20;82.90;;;;;;5115776;27;20039;-46
2021/06/17 00:13:16;;;;;;;7.45;4.28;;;23.20;82.80;;;;;;5133630;27;20048;-49
2021/06/17 00:15:45;;;;;;;6.03;3.65;;;23.20;82.90;;;;;;5067519;27;20069;-47
2021/06/17 00:18:14;;;;;;;7.68;3.95;;;23.20;83.70;;;;;;5109272;27;20082;-46
2021/06/17 00:20:42;;;;;;;5.05;3.85;;;23.30;85.00;;;;;;5131596;27;20063;-46
2021/06/17 00:23:10;;;;;;;5.78;3.88;;;23.30;86.00;;;;;;5108894;27;20051;-47
2021/06/17 00:25:38;;;;;;;4.95;4.00;;;23.30;86.50;;;;;;5114429;27;20047;-49
2021/06/17 00:28:06;;;;;;;4.60;3.42;;;23.30;86.80;;;;;;5101988;28;20134;-48
2021/06/17 00:30:34;;;;;;;6.65;3.63;;;23.30;87.20;;;;;;5115237;27;20068;-47
2021/06/17 00:33:02;;;;;;;4.18;3.13;;;23.30;87.60;;;;;;5091538;27;20039;-47
2021/06/17 00:35:30;;;;;;;4.72;3.63;;;23.30;87.90;;;;;;5132435;27;20054;-46
2021/06/17 00:38:00;;;;;;;4.03;2.95;;;23.40;88.20;;;;;;5124536;27;20039;-47
2021/06/17 00:40:29;;;;;;;5.05;3.63;;;23.40;88.30;;;;;;5132841;27;20051;-47
2021/06/17 00:42:58;;;;;;;3.70;3.15;;;23.40;88.50;;;;;;5125686;27;20505;-47
2021/06/17 00:45:36;;;;;;;5.18;4.03;;;23.40;88.60;;;;;;5115647;27;20039;-46
2021/06/17 00:48:05;;;;;;;4.35;3.33;;;23.40;88.70;;;;;;5125540;27;20082;-46
2021/06/17 00:50:41;;;;;;;4.80;3.60;;;23.40;88.90;;;;;;5114946;27;20044;-47
2021/06/17 00:53:11;;;;;;;4.45;3.95;;;23.40;88.90;;;;;;5119088;27;20051;-46
2021/06/17 00:55:40;;;;;;;5.07;3.88;;;23.40;89.00;;;;;;5097649;27;20066;-47
2021/06/17 00:58:08;;;;;;;5.82;3.58;;;23.40;89.10;;;;;;5118620;27;20112;-47
2021/06/17 01:00:36;;;;;;;4.78;3.75;;;23.30;89.40;;;;;;5114872;27;20039;-48
2021/06/17 01:03:04;;;;;;;5.90;3.88;;;23.30;89.70;;;;;;5107821;27;20047;-46
2021/06/17 01:05:33;;;;;;;5.68;3.38;;;23.30;89.60;;;;;;5114681;27;20138;-48
2021/06/17 01:08:04;;;;;;;6.40;3.75;;;23.30;89.70;;;;;;5107004;27;20134;-48
2021/06/17 01:10:56;;;;;;;4.65;3.80;;;23.30;89.80;;;;;;5114446;27;20792;-50
2021/06/17 01:13:35;;;;;;;6.93;3.97;;;23.30;89.70;;;;;;5116690;27;20066;-46
2021/06/17 01:16:10;;;;;;;5.90;3.83;;;23.30;89.70;;;;;;5104925;27;20045;-46
2021/06/17 01:18:46;;;;;;;5.83;3.93;;;23.30;89.70;;;;;;5102187;28;20040;-46
2021/06/17 01:21:36;;;;;;;5.78;4.00;;;23.30;89.70;;;;;;5107438;27;20527;-46
2021/06/17 01:24:33;;;;;;;5.70;3.47;;;23.20;89.70;;;;;;5129528;27;20138;-50
2021/06/17 01:27:39;;;;;;;5.53;3.45;;;23.20;89.90;;;;;;5123908;27;20134;-52
2021/06/17 01:30:16;;;;;;;6.75;4.65;;;23.10;89.90;;;;;;5031338;28;20621;-46
2021/06/17 01:32:50;;;;;;;5.72;3.83;;;23.10;89.90;;;;;;5009344;28;20152;-47
2021/06/17 01:35:21;;;;;;;5.32;3.58;;;23.10;89.90;;;;;;5070459;27;20560;-50
2021/06/17 01:37:52;;;;;;;6.25;4.57;;;23.10;89.90;;;;;;5122167;27;20047;-48
2021/06/17 01:40:21;;;;;;;6.97;3.85;;;23.00;89.90;;;;;;5132850;27;20408;-47
2021/06/17 01:42:50;;;;;;;7.05;4.43;;;23.00;90.10;;;;;;5121243;27;20404;-46
2021/06/17 01:45:18;;;;;;;7.55;4.60;;;23.00;89.60;;;;;;5114776;27;20138;-49
2021/06/17 01:47:47;;;;;;;6.00;3.60;;;23.00;89.60;;;;;;5121250;27;20077;-48
2021/06/17 01:50:15;;;;;;;6.88;4.32;;;23.00;89.30;;;;;;5132068;27;20050;-46
2021/06/17 01:52:45;;;;;;;7.22;3.63;;;22.90;89.20;;;;;;5119753;27;20048;-47
2021/06/17 01:55:14;;;;;;;4.47;3.45;;;22.90;89.20;;;;;;5075574;28;20461;-50
2021/06/17 01:57:43;;;;;;;7.50;3.97;;;22.80;89.30;;;;;;5102808;28;20051;-48
2021/06/17 02:00:12;;;;;;;8.07;4.00;;;22.80;89.30;;;;;;5092893;28;20056;-46
2021/06/17 02:02:41;;;;;;;5.35;3.67;;;22.80;89.60;;;;;;5121263;27;20057;-46
2021/06/17 02:05:10;;;;;;;4.15;3.40;;;22.80;89.60;;;;;;5132771;27;20096;-51
2021/06/17 02:07:41;;;;;;;6.15;3.85;;;22.80;89.60;;;;;;5102544;27;20131;-46
2021/06/17 02:10:17;;;;;;;5.25;3.42;;;22.70;89.50;;;;;;5132098;27;20047;-47
2021/06/17 02:12:48;;;;;;;6.68;3.70;;;22.70;89.60;;;;;;5123076;27;20039;-48
2021/06/17 02:15:19;;;;;;;5.10;3.55;;;22.70;90.00;;;;;;5094951;27;20051;-46
2021/06/17 02:17:49;;;;;;;5.43;3.63;;;22.70;89.80;;;;;;5105567;28;20044;-49
2021/06/17 02:20:19;;;;;;;4.95;3.22;;;22.70;90.00;;;;;;5094811;28;20554;-47
2021/06/17 02:22:49;;;;;;;4.70;3.45;;;22.70;90.10;;;;;;5122590;27;20050;-51
2021/06/17 02:25:18;;;;;;;6.07;3.85;;;22.70;90.20;;;;;;5114405;27;20131;-48
2021/06/17 02:27:51;;;;;;;5.00;3.38;;;22.70;90.20;;;;;;5103406;27;20099;-47
2021/06/17 02:30:19;;;;;;;6.13;4.10;;;22.70;90.30;;;;;;5114196;27;20142;-47
2021/06/17 02:32:50;;;;;;;5.82;3.75;;;22.70;90.40;;;;;;5120858;27;20071;-47
2021/06/17 02:35:24;;;;;;;5.63;3.38;;;22.70;90.50;;;;;;5132302;27;20392;-47
2021/06/17 02:38:03;;;;;;;4.10;3.30;;;22.70;90.50;;;;;;5102695;27;20112;-47
2021/06/17 02:40:34;;;;;;;4.72;3.53;;;22.70;90.50;;;;;;5130421;28;20058;-47
2021/06/17 02:43:08;;;;;;;4.22;3.35;;;22.60;90.50;;;;;;5122923;28;20382;-48
2021/06/17 02:45:37;;;;;;;5.07;4.00;;;22.70;90.60;;;;;;5111915;28;20050;-47
2021/06/17 02:48:05;;;;;;;6.85;4.65;;;22.60;90.50;;;;;;5105550;28;20043;-47
2021/06/17 02:50:33;;;;;;;8.90;3.97;;;22.60;90.50;;;;;;5112566;28;20059;-47
2021/06/17 02:53:01;;;;;;;5.97;4.22;;;22.60;90.50;;;;;;5087703;28;20067;-48
2021/06/17 02:55:29;;;;;;;6.90;3.85;;;22.60;90.50;;;;;;5112549;28;20056;-48
2021/06/17 02:58:15;;;;;;;5.35;3.97;;;22.60;90.40;;;;;;5121741;28;20051;-47
2021/06/17 03:00:48;;;;;;;;;;;22.60;90.40;;;;;;5129425;28;20049;-46
2021/06/17 03:03:25;;;;;;;6.15;3.45;;;22.60;90.40;;;;;;5106023;28;19964;-47
2021/06/17 03:06:12;;;;;;;7.75;3.50;;;22.60;90.40;;;;;;5128598;28;20039;-48
2021/06/17 03:09:03;;;;;;;5.88;4.13;;;22.60;90.40;;;;;;5116072;28;20134;-47
2021/06/17 03:11:33;;;;;;;5.90;3.67;;;22.60;90.40;;;;;;5129708;27;20394;-47
2021/06/17 03:14:18;;;;;;;8.25;4.13;;;22.60;90.30;;;;;;5113446;27;20047;-46
2021/06/17 03:16:49;;;;;;;5.63;3.53;;;22.60;90.30;;;;;;5127921;27;20109;-46
2021/06/17 03:19:19;;;;;;;5.47;3.72;;;22.60;90.20;;;;;;5115510;27;20039;-46
2021/06/17 03:21:51;;;;;;;6.47;4.18;;;22.60;90.20;;;;;;5127727;27;20055;-47
2021/06/17 03:24:26;;;;;;;7.93;4.10;;;22.50;90.10;;;;;;5133135;27;20051;-48
2021/06/17 03:26:56;;;;;;;7.65;3.92;;;22.50;90.10;;;;;;5105569;28;20060;-49
2021/06/17 03:29:27;;;;;;;6.43;4.25;;;22.50;90.00;;;;;;5113359;27;20055;-47
2021/06/17 03:31:57;;;;;;;6.00;4.10;;;22.50;90.00;;;;;;5105250;28;20052;-55
2021/06/17 03:34:26;;;;;;;4.43;3.35;;;22.50;90.10;;;;;;5132446;27;20046;-49
2021/06/17 03:36:55;;;;;;;4.78;3.58;;;22.50;90.10;;;;;;5126854;27;20498;-49
2021/06/17 03:39:24;;;;;;;4.82;3.22;;;22.50;90.00;;;;;;5115975;27;20051;-49
2021/06/17 03:41:52;;;;;;;6.18;3.50;;;22.60;89.80;;;;;;5126677;27;20139;-47
2021/06/17 03:44:23;;;;;;;6.82;3.17;;;22.60;89.60;;;;;;5132958;27;20043;-46
2021/06/17 03:46:53;;;;;;;5.15;4.07;;;22.60;89.20;;;;;;5126549;27;20093;-47
2021/06/17 03:49:22;;;;;;;8.55;3.60;;;22.60;89.00;;;;;;5115255;27;20046;-46
2021/06/17 03:51:51;;;;;;;6.63;4.55;;;22.70;88.90;;;;;;5126671;27;20100;-47
2021/06/17 03:54:23;;;;;;;7.20;4.30;;;22.70;88.70;;;;;;5132196;27;20043;-47
2021/06/17 03:56:54;;;;;;;5.10;3.83;;;22.70;88.30;;;;;;5109731;28;20048;-47
2021/06/17 03:59:24;;;;;;;8.50;4.47;;;22.70;88.30;;;;;;5132729;27;20051;-47
2021/06/17 04:01:53;;;;;;;5.80;3.83;;;22.70;88.00;;;;;;5126340;27;20048;-47
2021/06/17 04:04:24;;;;;;;4.82;3.97;;;22.70;87.80;;;;;;5116433;27;20043;-47
2021/06/17 04:06:58;;;;;;;7.35;4.63;;;22.70;87.20;;;;;;5126010;27;20063;-47
2021/06/17 04:09:31;;;;;;;6.97;3.58;;;22.60;86.30;;;;;;5132973;27;20058;-49
2021/06/17 04:12:07;;;;;;;6.30;3.45;;;22.70;86.00;;;;;;5126332;27;20065;-48
2021/06/17 04:14:38;;;;;;;5.45;3.65;;;22.60;85.80;;;;;;5134107;27;20054;-46
2021/06/17 04:17:08;;;;;;;8.68;4.43;;;22.70;85.40;;;;;;5124005;27;20046;-48
2021/06/17 04:19:38;;;;;;;6.10;3.40;;;22.70;85.10;;;;;;5117277;27;20043;-46
2021/06/17 04:22:09;;;;;;;8.48;3.47;;;22.80;84.70;;;;;;5124039;27;20051;-47
2021/06/17 04:24:41;;;;;;;8.10;4.30;;;22.90;83.70;;;;;;5134500;27;20035;-46
2021/06/17 04:27:09;;;;;;;7.75;4.28;;;23.10;83.20;;;;;;5102544;28;20051;-46
2021/06/17 04:29:39;;;;;;;8.23;4.07;;;23.20;82.50;;;;;;5132922;27;20080;-46
2021/06/17 04:32:08;;;;;;;6.60;4.60;;;23.40;82.00;;;;;;5102557;28;20060;-47
2021/06/17 04:34:40;;;;;;;9.90;4.78;;;23.60;80.60;;;;;;5133314;27;20043;-46
2021/06/17 04:37:14;;;;;;;9.30;4.78;;;23.70;79.80;;;;;;5123496;27;20040;-46
2021/06/17 04:39:42;;;;;;;9.60;4.65;;;23.90;79.20;;;;;;5077926;28;20052;-46
2021/06/17 04:42:12;;;;;;;13.18;4.95;;;24.10;78.80;;;;;;5116521;27;20135;-47
2021/06/17 04:44:42;;;;;;;11.68;4.90;;;24.30;78.30;;;;;;5135109;27;20378;-48
2021/06/17 04:47:10;;;;;;;8.80;4.85;;;24.40;77.40;;;;;;5102936;28;20147;-48
2021/06/17 04:49:39;;;;;;;13.65;4.88;;;24.50;76.50;;;;;;5117028;27;20131;-52
2021/06/17 04:52:15;;;;;;;11.07;5.07;;;24.70;75.60;;;;;;5123650;27;20052;-47
2021/06/17 04:54:42;;;;;;;6.38;3.78;;;24.80;74.70;;;;;;5095278;28;20135;-49
2021/06/17 04:57:10;;;;;;;9.50;5.03;;;25.00;73.90;;;;;;5112740;27;20072;-50
2021/06/17 04:59:38;;;;;;;12.60;4.32;;;25.10;73.40;;;;;;5099862;27;20546;-51
2021/06/17 05:02:06;;;;;;;5.82;3.63;;;25.30;72.40;;;;;;5103239;28;20094;-49
2021/06/17 05:04:35;;;;;;;7.68;3.85;;;25.40;72.90;;;;;;5109968;28;20047;-47
2021/06/17 05:12:18;;;;;;;8.68;4.15;;;25.70;71.60;;;;;;5101476;27;20087;-48
2021/06/17 05:14:45;;;;;;;11.68;4.50;;;25.90;72.30;;;;;;5117615;27;20057;-48
2021/06/17 05:17:13;;;;;;;8.30;3.83;;;26.00;72.30;;;;;;5122009;27;20150;-49
2021/06/17 05:19:41;;;;;;;5.45;3.67;;;26.10;73.10;;;;;;5117486;27;20055;-50
2021/06/17 05:22:10;;;;;;;6.40;3.75;;;26.20;73.90;;;;;;5122667;27;20051;-51
2021/06/17 05:24:38;;;;;;;6.40;3.75;;;26.30;73.90;;;;;;5133923;27;20400;-51
2021/06/17 05:27:07;;;;;;;8.45;4.18;;;26.40;74.10;;;;;;5122904;27;20047;-48
2021/06/17 05:29:35;;;;;;;4.60;3.25;;;26.50;74.40;;;;;;5133115;27;20100;-47
2021/06/17 05:32:04;;;;;;;4.85;3.25;;;26.60;74.70;;;;;;5124607;27;20059;-48
2021/06/17 05:34:31;;;;;;;5.65;3.60;;;26.70;73.70;;;;;;5115707;27;20044;-47
2021/06/17 05:36:59;;;;;;;3.88;2.85;;;26.80;73.80;;;;;;5123829;27;20051;-48
2021/06/17 05:39:27;;;;;;;5.97;4.10;;;26.80;73.30;;;;;;5098224;27;20057;-46
2021/06/17 05:41:54;;;;;;;7.10;4.20;;;26.90;72.40;;;;;;5124303;27;20071;-48
2021/06/17 05:44:23;;;;;;;6.07;4.97;;;27.00;72.30;;;;;;5132438;27;20054;-47
2021/06/17 05:46:51;;;;;;;9.73;5.30;;;27.10;71.80;;;;;;5125234;27;20051;-49
2021/06/17 05:49:23;;;;;;;7.80;4.80;;;27.30;71.40;;;;;;5113410;27;20130;-48
2021/06/17 05:51:51;;;;;;;7.68;4.93;;;27.40;70.20;;;;;;5124972;27;20052;-47
2021/06/17 05:54:19;;;;;;;6.30;4.10;;;27.50;69.20;;;;;;5113770;27;20051;-47
2021/06/17 05:56:47;;;;;;;6.55;4.68;;;27.70;68.20;;;;;;5125268;27;20479;-47
2021/06/17 05:59:17;;;;;;;7.13;4.40;;;27.80;67.50;;;;;;5129473;27;20047;-50
2021/06/17 06:01:45;;;;;;;6.20;4.22;;;27.90;66.90;;;;;;5125711;27;20056;-53
2021/06/17 06:04:12;;;;;;;6.63;4.18;;;28.00;66.20;;;;;;5129552;27;20051;-53
2021/06/17 06:06:40;;;;;;;6.82;4.38;;;28.10;66.50;;;;;;5127129;27;20451;-48
2021/06/17 06:09:09;;;;;;;11.27;4.07;;;28.20;65.90;;;;;;5128940;27;20070;-47
2021/06/17 06:11:37;;;;;;;10.07;4.47;;;28.30;65.50;;;;;;5126152;27;20507;-49
2021/06/17 06:14:05;;;;;;;7.18;3.63;;;28.50;64.10;;;;;;5128101;27;20133;-47
2021/06/17 06:16:35;;;;;;;5.32;3.10;;;28.50;63.60;;;;;;5126579;27;20043;-47
2021/06/17 06:19:06;;;;;;;4.82;3.30;;;28.70;63.20;;;;;;5110811;27;20039;-49
2021/06/17 06:21:34;;;;;;;4.57;3.05;;;28.80;63.00;;;;;;5126339;27;20054;-52
2021/06/17 06:24:02;;;;;;;9.43;3.60;;;28.90;62.40;;;;;;5127198;27;20134;-47
2021/06/17 06:26:29;;;;;;;6.70;3.17;;;29.10;62.80;;;;;;5127003;27;20043;-49
2021/06/17 06:28:57;;;;;;;5.13;3.28;;;29.10;61.70;;;;;;5126727;27;20035;-47
2021/06/17 06:31:25;;;;;;;5.18;3.15;;;29.20;61.60;;;;;;5127241;27;20055;-46
2021/06/17 06:33:52;;;;;;;4.88;3.42;;;29.30;61.60;;;;;;5109136;27;20061;-46
2021/06/17 06:36:20;;;;;;;5.28;3.00;;;29.40;60.70;;;;;;5127968;27;20092;-47
2021/06/17 06:38:48;;;;;;;4.55;3.58;;;29.40;60.00;;;;;;5125031;27;20043;-47
2021/06/17 06:41:15;;;;;;;4.30;3.33;;;29.40;59.80;;;;;;5129562;27;20198;-51
2021/06/17 06:43:43;;;;;;;6.38;2.90;;;29.40;59.70;;;;;;5125289;28;20047;-48
2021/06/17 06:46:12;;;;;;;3.58;2.70;;;29.50;59.80;;;;;;5128508;27;20075;-49
2021/06/17 06:48:40;;;;;;;3.63;2.67;;;29.50;59.20;;;;;;5116600;28;20050;-48
2021/06/17 06:51:08;;;;;;;4.35;2.60;;;29.60;58.60;;;;;;5128636;28;20053;-51
2021/06/17 06:53:36;;;;;;;4.35;2.90;;;29.70;58.00;;;;;;5106585;28;20409;-48
2021/06/17 06:56:04;;;;;;;4.40;2.83;;;29.40;58.10;;;;;;5130166;27;20043;-47
2021/06/17 06:58:31;;;;;;;6.25;3.17;;;29.20;58.30;;;;;;5123250;28;20051;-48
2021/06/17 07:00:59;;;;;;;3.63;2.70;;;29.10;58.70;;;;;;5129090;28;20539;-48
2021/06/17 07:03:27;;;;;;;7.20;3.55;;;29.00;58.70;;;;;;5124459;27;20054;-49
2021/06/17 07:05:55;;;;;;;5.40;3.20;;;28.90;59.00;;;;;;5129044;28;20040;-49
2021/06/17 07:08:24;;;;;;;5.18;3.00;;;28.90;59.30;;;;;;5123622;28;20051;-48
2021/06/17 07:10:51;;;;;;;4.57;2.90;;;29.00;59.40;;;;;;5111954;28;20044;-47
2021/06/17 07:13:19;;;;;;;4.40;2.60;;;29.20;59.00;;;;;;5122908;28;20043;-50
2021/06/17 07:15:47;;;;;;;6.07;2.63;;;29.40;58.70;;;;;;5111853;28;20127;-49
2021/06/17 07:18:15;;;;;;;4.20;2.50;;;29.70;58.30;;;;;;5123252;28;20135;-49
2021/06/17 07:20:42;;;;;;;5.32;2.72;;;29.80;57.60;;;;;;5130142;27;20031;-48
2021/06/17 07:23:10;;;;;;;4.93;3.03;;;30.00;57.70;;;;;;5123733;28;20050;-49
2021/06/17 07:25:38;;;;;;;6.28;3.20;;;30.10;57.70;;;;;;5129340;28;20035;-46
2021/06/17 07:28:06;;;;;;;7.75;2.83;;;30.10;57.40;;;;;;5116214;28;20048;-50
2021/06/17 07:30:34;;;;;;;2.90;2.22;;;30.00;57.60;;;;;;5112603;28;20436;-51
2021/06/17 07:33:02;;;;;;;6.45;2.67;;;30.00;58.00;;;;;;5106003;28;20210;-47
2021/06/17 07:35:30;;;;;;;4.25;2.55;;;30.00;57.70;;;;;;5130189;28;20051;-47
2021/06/17 07:37:58;;;;;;;4.25;3.25;;;30.00;57.50;;;;;;5122222;28;20059;-49
2021/06/17 07:40:26;;;;;;;4.38;2.67;;;30.00;57.40;;;;;;5130831;28;20043;-48
2021/06/17 07:42:53;;;;;;;4.30;2.67;;;29.80;57.20;;;;;;5121164;28;20043;-53
2021/06/17 07:45:25;;;;;;;5.78;2.80;;;29.70;57.60;;;;;;5130600;28;20047;-49
2021/06/17 07:47:53;;;;;;;3.42;2.42;;;29.70;57.90;;;;;;5120903;28;20043;-48
2021/06/17 07:50:21;;;;;;;3.85;2.38;;;29.60;57.80;;;;;;5131260;28;20381;-49
2021/06/17 07:52:50;;;;;;;5.30;2.80;;;29.60;57.90;;;;;;5120743;28;20476;-47
2021/06/17 07:55:18;;;;;;;5.75;2.97;;;29.70;58.00;;;;;;5130642;28;20056;-47
2021/06/17 07:57:45;;;;;;;5.22;2.95;;;29.70;57.60;;;;;;5121521;27;20082;-53
2021/06/17 08:00:14;;;;;;;4.40;2.65;;;29.70;58.30;;;;;;5134950;27;20432;-48
2021/06/17 08:02:42;;;;;;;4.70;2.60;;;29.70;58.20;;;;;;5123923;27;20442;-53
2021/06/17 08:05:10;;;;;;;6.53;2.88;;;29.90;58.30;;;;;;5135106;27;20043;-55
2021/06/17 08:07:40;;;;;;;5.03;2.58;;;29.50;57.30;;;;;;5124388;27;20488;-52
2021/06/17 08:10:08;;;;;;;5.03;2.85;;;29.80;58.00;;;;;;5135567;27;20054;-50
2021/06/17 08:12:36;;;;;;;3.92;2.67;;;30.10;58.40;;;;;;5127456;27;20138;-45
2021/06/17 08:15:05;;;;;;;7.13;2.88;;;30.30;63.00;;;;;;5114967;28;20135;-48
2021/06/17 08:17:33;;;;;;;6.20;3.40;;;30.30;65.10;;;;;;5105764;27;20134;-52
2021/06/17 08:20:01;;;;;;;6.72;3.28;;;30.30;65.90;;;;;;5136548;27;20553;-49
2021/06/17 08:22:30;;;;;;;4.10;2.67;;;30.30;66.20;;;;;;5105708;27;20536;-46
2021/06/17 08:24:57;;;;;;;5.80;3.40;;;30.40;62.80;;;;;;5135464;27;20054;-46
2021/06/17 08:27:29;;;;;;;5.20;3.03;;;30.50;61.90;;;;;;5103225;27;20052;-50
2021/06/17 08:29:57;;;;;;;4.70;3.33;;;30.50;62.20;;;;;;5118384;27;20059;-49
2021/06/17 08:32:25;;;;;;;6.45;2.88;;;30.50;62.10;;;;;;5122504;27;20100;-49
2021/06/17 08:34:53;;;;;;;5.43;3.25;;;30.40;61.70;;;;;;5136329;27;20051;-51
2021/06/17 08:37:21;;;;;;;5.43;3.10;;;30.40;61.50;;;;;;5121972;27;20040;-47
2021/06/17 08:39:54;;;;;;;6.22;3.60;;;30.40;62.60;;;;;;5135229;27;20043;-46
2021/06/17 08:42:29;;;;;;;6.38;3.75;;;30.50;62.70;;;;;;5122038;27;20047;-46
2021/06/17 08:44:59;;;;;;;7.38;3.00;;;30.60;62.50;;;;;;5136219;27;20051;-47
2021/06/17 08:47:30;;;;;;;4.85;3.00;;;30.40;62.10;;;;;;5102516;27;20410;-46
2021/06/17 08:50:00;;;;;;;4.68;2.53;;;30.40;62.20;;;;;;5117598;27;20043;-51
2021/06/17 08:52:33;;;;;;;6.18;3.53;;;30.50;61.90;;;;;;5103190;27;20044;-48
2021/06/17 08:55:11;;;;;;;3.80;2.70;;;30.40;62.10;;;;;;5117762;27;20130;-47
2021/06/17 08:57:39;;;;;;;4.63;2.75;;;30.40;62.40;;;;;;5123314;27;20146;-46
2021/06/17 09:00:16;;;;;;;3.92;2.53;;;30.30;61.70;;;;;;5135678;27;20055;-48
2021/06/17 09:03:01;;;;;;;5.25;2.88;;;30.40;61.80;;;;;;5104028;28;20145;-50
2021/06/17 09:05:31;;;;;;;3.80;2.72;;;30.50;61.80;;;;;;5113409;27;20052;-49
2021/06/17 09:08:00;;;;;;;5.38;3.15;;;30.80;62.20;;;;;;5123870;27;20039;-49
2021/06/17 09:10:29;;;;;;;4.93;3.15;;;31.00;62.10;;;;;;5115281;27;20051;-47
2021/06/17 09:13:00;;;;;;;5.38;3.08;;;31.10;62.40;;;;;;5124773;27;20055;-48
2021/06/17 09:15:39;;;;;;;4.97;3.08;;;31.30;62.70;;;;;;5133385;27;20051;-49
2021/06/17 09:18:31;;;;;;;3.53;2.78;;;31.40;61.40;;;;;;5081049;28;20056;-51
2021/06/17 09:21:05;;;;;;;5.22;2.70;;;31.30;61.90;;;;;;5103672;27;20050;-48
2021/06/17 09:23:41;;;;;;;4.65;2.70;;;31.30;62.40;;;;;;5108041;27;20370;-48
2021/06/17 09:26:19;;;;;;;6.28;3.00;;;31.40;62.10;;;;;;5131848;27;20057;-48
2021/06/17 09:29:03;;;;;;;3.47;2.70;;;31.40;61.10;;;;;;5119595;27;20077;-46
2021/06/17 09:31:33;;;;;;;4.65;2.72;;;30.90;60.00;;;;;;5110147;27;20051;-46
2021/06/17 09:34:02;;;;;;;6.72;4.70;;;30.30;62.30;;;;;;5111212;27;20039;-52
2021/06/17 09:36:32;;;;;;;5.82;3.13;;;30.10;63.30;;;;;;5127605;27;20461;-48
2021/06/17 09:39:08;;;;;;;4.43;3.38;;;29.60;64.10;;;;;;5127670;27;20043;-49
2021/06/17 09:41:50;;;;;;;8.65;3.75;;;29.40;64.30;;;;;;5126582;27;20052;-51
2021/06/17 09:44:30;;;;;;;7.55;5.90;;;29.20;65.00;;;;;;5130175;27;20050;-51
2021/06/17 09:47:18;;;;;;;7.43;5.38;;;29.10;65.30;;;;;;5124712;27;20051;-52
2021/06/17 09:49:47;;;;;;;11.85;5.15;;;29.30;65.60;;;;;;5109721;28;20082;-49
2021/06/17 09:52:15;;;;;;;6.65;4.82;;;29.50;65.00;;;;;;5115514;27;20043;-50
2021/06/17 09:54:44;;;;;;;7.55;5.43;;;29.50;64.20;;;;;;5075965;28;20447;-45
2021/06/17 09:57:19;;;;;;;7.07;5.20;;;29.60;64.20;;;;;;5094853;28;20134;-46
2021/06/17 09:59:54;;;;;;;8.45;5.05;;;29.80;64.00;;;;;;5092436;28;20094;-49
2021/06/17 10:02:31;;;;;;;8.00;5.03;;;29.90;63.40;;;;;;5118152;27;20104;-46
2021/06/17 10:05:13;;;;;;;6.97;4.30;;;30.00;63.20;;;;;;5134172;27;20520;-47
2021/06/17 10:07:43;;;;;;;10.23;4.63;;;29.90;62.80;;;;;;5122900;27;20043;-49
2021/06/17 10:10:13;;;;;;;8.23;4.60;;;30.10;63.00;;;;;;5132531;27;20138;-47
2021/06/17 10:12:42;;;;;;;10.40;5.47;;;30.00;62.70;;;;;;5122277;27;20062;-46
2021/06/17 10:15:10;;;;;;;6.72;4.65;;;29.80;62.40;;;;;;5132528;27;20104;-50
2021/06/17 10:17:39;;;;;;;5.30;3.70;;;29.70;62.90;;;;;;5137246;27;20047;-46
2021/06/17 10:20:09;;;;;;;10.27;4.10;;;29.70;62.90;;;;;;5132639;27;20051;-47
2021/06/17 10:22:39;;;;;;;6.13;3.85;;;29.70;62.70;;;;;;5109302;27;20055;-46
2021/06/17 10:25:09;;;;;;;8.68;3.85;;;29.80;62.30;;;;;;5134159;27;20058;-46
2021/06/17 10:27:42;;;;;;;6.22;3.67;;;29.90;62.10;;;;;;5124759;27;20055;-49
2021/06/17 10:30:11;;;;;;;5.50;3.53;;;30.00;61.60;;;;;;5112939;28;20062;-50
2021/06/17 10:32:47;;;;;;;5.15;3.70;;;30.10;61.80;;;;;;5120408;27;20051;-46
2021/06/17 10:35:29;;;;;;;5.70;4.07;;;30.00;61.50;;;;;;5114572;27;20513;-46
2021/06/17 10:38:03;;;;;;;12.52;3.85;;;30.10;61.60;;;;;;5123218;27;20055;-46
2021/06/17 10:40:34;;;;;;;5.50;3.45;;;30.20;61.60;;;;;;5112912;28;20043;-46
2021/06/17 10:43:19;;;;;;;3.83;2.85;;;30.00;60.80;;;;;;5123035;28;20116;-48
2021/06/17 10:45:48;;;;;;;4.80;2.65;;;29.80;61.00;;;;;;5130289;27;20076;-45
2021/06/17 10:48:24;;;;;;;4.30;2.97;;;29.80;61.00;;;;;;5106398;28;20047;-46
2021/06/17 10:51:03;;;;;;;4.45;2.97;;;29.90;61.20;;;;;;5109966;28;20040;-51
2021/06/17 10:53:39;;;;;;;5.78;3.63;;;29.90;60.90;;;;;;5123307;28;20378;-53
2021/06/17 10:56:37;;;;;;;3.47;2.67;;;30.10;60.70;;;;;;5127710;28;20043;-52
2021/06/17 10:59:05;;;;;;;4.00;2.53;;;30.20;60.40;;;;;;5127013;28;20149;-45
2021/06/17 11:01:45;;;;;;;6.00;2.92;;;30.10;60.00;;;;;;5125748;28;20391;-45
2021/06/17 11:04:17;;;;;;;4.72;2.97;;;30.00;59.90;;;;;;5111668;28;20141;-46
2021/06/17 11:06:55;;;;;;;3.92;2.88;;;30.10;60.20;;;;;;5104056;28;20468;-45
2021/06/17 11:09:44;;;;;;;4.57;2.95;;;30.10;60.10;;;;;;5126572;28;20047;-47
2021/06/17 11:12:19;;;;;;;4.35;2.47;;;30.30;59.80;;;;;;5121198;27;20047;-48
2021/06/17 11:14:50;;;;;;;2.88;2.17;;;30.20;59.50;;;;;;5058068;28;20044;-48
2021/06/17 11:17:30;;;;;;;4.13;2.40;;;30.00;59.40;;;;;;5097628;28;20454;-46
2021/06/17 11:20:02;;;;;;;3.47;2.70;;;29.90;59.80;;;;;;5132122;28;20047;-46
2021/06/17 11:22:39;;;;;;;5.13;2.38;;;29.70;59.90;;;;;;5119729;28;20051;-50
2021/06/17 11:25:16;;;;;;;3.67;2.47;;;29.70;60.20;;;;;;5115583;28;20485;-49
2021/06/17 11:28:04;;;;;;;3.97;2.30;;;29.70;60.00;;;;;;5122002;28;20493;-49
2021/06/17 11:30:38;;;;;;;3.58;2.53;;;29.80;60.20;;;;;;5112263;28;20057;-46
2021/06/17 11:33:17;;;;;;;5.00;2.70;;;29.70;60.70;;;;;;5126528;27;20039;-47
2021/06/17 11:35:46;;;;;;;5.45;2.40;;;29.80;60.80;;;;;;5132556;27;20059;-46
2021/06/17 11:38:27;;;;;;;3.60;2.50;;;29.80;60.20;;;;;;5093006;27;20086;-46
2021/06/17 11:40:55;;;;;;;3.65;2.83;;;29.70;60.30;;;;;;5114199;27;20055;-49
2021/06/17 11:43:28;;;;;;;5.57;2.78;;;29.60;60.40;;;;;;5126685;27;20043;-47
2021/06/17 11:45:56;;;;;;;5.15;3.03;;;29.60;60.70;;;;;;5133652;27;20051;-48
2021/06/17 11:48:25;;;;;;;4.60;2.60;;;29.40;60.90;;;;;;5109740;27;20043;-48
2021/06/17 11:50:55;;;;;;;5.80;2.50;;;29.40;61.10;;;;;;5113518;27;20497;-50
2021/06/17 11:53:26;;;;;;;3.90;2.28;;;29.40;61.20;;;;;;5126405;27;20092;-49
2021/06/17 11:55:56;;;;;;;4.13;2.35;;;29.50;61.10;;;;;;5097221;27;20090;-47
2021/06/17 11:58:28;;;;;;;3.80;2.30;;;29.70;61.00;;;;;;5126403;27;20085;-49
2021/06/17 12:00:58;;;;;;;5.05;2.20;;;29.80;61.10;;;;;;5133530;27;20039;-45
2021/06/17 12:03:26;;;;;;;3.35;2.63;;;29.60;61.10;;;;;;5109790;27;20039;-48
2021/06/17 12:06:13;;;;;;;3.83;2.40;;;29.50;60.90;;;;;;5113511;27;20097;-52
2021/06/17 12:08:41;;;;;;;3.33;2.42;;;29.50;60.90;;;;;;5115387;27;20044;-48
2021/06/17 12:11:21;;;;;;;3.72;2.50;;;29.50;61.40;;;;;;5103137;27;20454;-51
2021/06/17 12:13:52;;;;;;;6.70;3.13;;;29.40;62.20;;;;;;5121356;27;20453;-49
2021/06/17 12:16:21;;;;;;;6.20;2.70;;;29.20;64.30;;;;;;5130395;27;20062;-47
2021/06/17 12:18:50;;;;;;;5.63;2.78;;;29.00;63.60;;;;;;5127704;27;20416;-48
2021/06/17 12:21:28;;;;;;;4.13;2.67;;;29.00;65.70;;;;;;5113821;27;20489;-47
2021/06/17 12:23:57;;;;;;;6.47;2.75;;;29.00;66.60;;;;;;5130135;27;20538;-51
2021/06/17 12:26:34;;;;;;;3.20;2.15;;;29.00;64.10;;;;;;5131123;27;20587;-48
2021/06/17 12:29:10;;;;;;;4.07;2.50;;;29.00;65.80;;;;;;5112472;27;20107;-49
2021/06/17 12:31:40;;;;;;;4.93;2.30;;;29.00;63.80;;;;;;5128919;27;20051;-48
2021/06/17 12:34:14;;;;;;;3.85;2.60;;;28.90;64.10;;;;;;5113401;27;20054;-50
2021/06/17 12:36:43;;;;;;;3.40;2.40;;;28.90;64.10;;;;;;5127231;27;20059;-48
2021/06/17 12:39:13;;;;;;;6.05;3.22;;;28.90;64.80;;;;;;5113452;27;20057;-47
2021/06/17 12:41:51;;;;;;;5.13;2.15;;;28.80;63.70;;;;;;5110553;28;20052;-47
2021/06/17 12:44:31;;;;;;;3.50;2.40;;;28.80;64.90;;;;;;5130784;27;20047;-50
2021/06/17 12:47:02;;;;;;;4.80;2.40;;;28.90;64.50;;;;;;5124848;27;20051;-46
2021/06/17 12:52:31;;;;;;;3.60;2.67;;;29.00;64.60;;;;;;5103474;27;20054;-47
2021/06/17 12:55:00;;;;;;;3.53;2.42;;;29.00;63.10;;;;;;5135031;27;20047;-46
2021/06/17 12:57:29;;;;;;;3.50;2.42;;;29.00;62.70;;;;;;5104838;27;20050;-49
2021/06/17 12:59:56;;;;;;;4.30;3.15;;;29.00;61.10;;;;;;5134371;27;20043;-46
2021/06/17 13:02:27;;;;;;;3.53;2.72;;;29.10;61.10;;;;;;5123226;27;20440;-46
2021/06/17 13:05:07;;;;;;;3.92;2.50;;;29.10;60.90;;;;;;5117690;27;20471;-49
2021/06/17 13:07:37;;;;;;;4.72;2.00;;;29.20;61.30;;;;;;5093720;27;20146;-46
2021/06/17 13:10:23;;;;;;;2.75;2.45;;;29.20;59.30;;;;;;5134563;27;20054;-50
2021/06/17 13:12:53;;;;;;;5.13;2.30;;;29.30;59.50;;;;;;5121145;27;20069;-48
2021/06/17 13:15:29;;;;;;;3.50;2.20;;;29.30;59.10;;;;;;5132870;27;20058;-50